Weather at Newcastle Aerodrome

Public forecast

Using degrees Celsius for public forecast. Weather courtesy of forecast.io.

Closest aviation weather report (METAR) to Newcastle Aerodrome

Closest report is Casement Air Base, 20.1 nm (37.3 km) NW.

2024/05/28 14:30 (retrieved 32 minutes ago)

EIME 281430Z 25019KT 9999 BKN028 19/11 Q1004

Closest aviation forecast (TAF) to Newcastle Aerodrome

Closest forecast is Dublin Airport, 22.8 nm (42.3 km) NNW.

2024/05/28 12:09 (retrieved 3 hours ago)

TAF EIDW 281100Z 2812/2912 25011KT 9999 SCT018 BKN025 PROB40 TEMPO 2812/2820 -SHRA BKN014 FEW018CB PROB30 TEMPO 2815/2818 4000 SHRA PROB40 TEMPO 2902/2908 BKN012 PROB30 TEMPO 2903/2907 4000 -SHRA BKN009 BECMG 2907/2909 29010KT